createdAt,value
2023-01-30T00:01:58.762Z,24.77
2023-01-30T00:04:26.628Z,22.63
2023-01-30T00:06:55.846Z,26.38
2023-01-30T00:09:23.750Z,23.75
2023-01-30T00:11:51.706Z,23.80
2023-01-30T00:14:19.589Z,22.10
2023-01-30T00:16:47.599Z,20.90
2023-01-30T00:19:15.558Z,22.30
2023-01-30T00:21:43.437Z,21.95
2023-01-30T00:24:12.869Z,23.35
2023-01-30T00:26:40.817Z,22.30
2023-01-30T00:29:10.614Z,21.40
2023-01-30T00:31:38.531Z,24.40
2023-01-30T00:34:06.388Z,22.98
2023-01-30T00:36:34.592Z,23.75
2023-01-30T00:39:02.490Z,20.67
2023-01-30T00:41:46.006Z,22.88
2023-01-30T00:44:31.560Z,29.02
2023-01-30T00:47:09.140Z,22.02
2023-01-30T00:49:37.964Z,19.83
2023-01-30T00:52:06.829Z,19.90
2023-01-30T00:54:34.780Z,22.85
2023-01-30T00:57:04.090Z,22.88
2023-01-30T00:59:32.446Z,22.90
2023-01-30T01:02:00.530Z,22.90
2023-01-30T01:04:28.565Z,28.10
2023-01-30T01:06:56.614Z,21.63
2023-01-30T01:09:24.487Z,25.15
2023-01-30T01:11:53.819Z,23.70
2023-01-30T01:14:23.072Z,23.23
2023-01-30T01:16:51.205Z,27.30
2023-01-30T01:19:19.135Z,24.77
2023-01-30T01:21:47.151Z,19.90
2023-01-30T01:24:16.678Z,20.20
2023-01-30T01:26:45.430Z,25.48
2023-01-30T01:29:15.043Z,21.77
2023-01-30T01:31:45.131Z,25.33
2023-01-30T01:34:13.128Z,21.88
2023-01-30T01:36:54.325Z,24.13
2023-01-30T01:39:23.117Z,23.48
2023-01-30T01:41:50.872Z,23.05
2023-01-30T01:44:18.811Z,16.65
2023-01-30T01:46:52.170Z,21.27
2023-01-30T01:49:25.017Z,23.63
2023-01-30T01:51:56.633Z,18.92
2023-01-30T01:54:30.552Z,19.40
2023-01-30T01:57:02.578Z,21.55
2023-01-30T01:59:35.684Z,17.17
2023-01-30T02:02:11.029Z,19.73
2023-01-30T02:04:58.750Z,20.35
2023-01-30T02:07:27.334Z,22.38
2023-01-30T02:09:55.347Z,20.70
2023-01-30T02:12:23.274Z,22.98
2023-01-30T02:14:51.580Z,21.58
2023-01-30T02:17:21.372Z,26.02
2023-01-30T02:19:55.347Z,25.95
2023-01-30T02:22:55.383Z,25.08
2023-01-30T02:25:41.501Z,19.50
2023-01-30T02:28:40.448Z,23.35
2023-01-30T02:31:31.115Z,25.63
2023-01-30T02:34:16.155Z,25.05
2023-01-30T02:36:53.054Z,24.90
2023-01-30T02:39:31.619Z,21.63
2023-01-30T02:42:04.749Z,23.77
2023-01-30T02:44:44.079Z,25.00
2023-01-30T02:47:17.346Z,23.58
2023-01-30T02:49:49.516Z,26.40
2023-01-30T02:52:18.553Z,25.15
2023-01-30T02:54:47.178Z,19.80
2023-01-30T02:57:21.430Z,27.58
2023-01-30T02:59:55.922Z,26.08
2023-01-30T03:02:38.117Z,26.63
2023-01-30T03:05:27.760Z,25.70
2023-01-30T03:08:05.495Z,23.15
2023-01-30T03:10:38.884Z,22.85
2023-01-30T03:13:17.390Z,24.30
2023-01-30T03:15:50.898Z,25.15
2023-01-30T03:18:21.582Z,20.85
2023-01-30T03:20:49.567Z,21.20
2023-01-30T03:23:17.492Z,22.08
2023-01-30T03:25:48.831Z,19.40
2023-01-30T03:28:20.978Z,19.00
2023-01-30T03:30:49.837Z,19.50
2023-01-30T03:33:17.986Z,20.10
2023-01-30T03:35:50.576Z,19.45
2023-01-30T03:38:18.792Z,17.42
2023-01-30T03:40:47.922Z,21.45
2023-01-30T03:43:16.390Z,18.73
2023-01-30T03:45:44.305Z,16.58
2023-01-30T03:48:12.196Z,20.27
2023-01-30T03:50:40.181Z,17.30
2023-01-30T03:53:09.537Z,17.15
2023-01-30T03:55:37.921Z,17.90
2023-01-30T03:58:05.895Z,17.67
2023-01-30T04:00:34.965Z,19.42
2023-01-30T04:03:03.494Z,19.05
2023-01-30T04:05:33.019Z,18.00
2023-01-30T04:08:05.412Z,16.75
2023-01-30T04:10:34.750Z,16.05
2023-01-30T04:13:02.656Z,15.27
2023-01-30T04:15:32.287Z,18.35
2023-01-30T04:18:18.795Z,19.00
2023-01-30T04:20:51.134Z,16.55
2023-01-30T04:23:24.971Z,16.08
2023-01-30T04:25:54.247Z,20.20
2023-01-30T04:28:24.760Z,21.45
2023-01-30T04:30:54.258Z,19.00
2023-01-30T04:33:48.147Z,18.77
2023-01-30T04:36:16.813Z,20.48
2023-01-30T04:38:46.083Z,17.20
2023-01-30T04:41:15.418Z,17.23
2023-01-30T04:43:44.574Z,17.27
2023-01-30T04:46:30.321Z,21.92
2023-01-30T04:48:58.480Z,20.08
2023-01-30T04:51:27.434Z,20.05
2023-01-30T04:53:55.427Z,20.95
2023-01-30T04:56:24.856Z,19.75
2023-01-30T04:58:53.954Z,20.10
2023-01-30T05:01:26.171Z,18.65
2023-01-30T05:03:55.070Z,18.58
2023-01-30T05:06:23.382Z,21.02
2023-01-30T05:08:52.883Z,22.20
2023-01-30T05:11:21.692Z,18.08
2023-01-30T05:13:51.671Z,21.85
2023-01-30T05:16:21.028Z,19.75
2023-01-30T05:18:49.240Z,21.60
2023-01-30T05:21:19.320Z,19.45
2023-01-30T05:23:48.001Z,19.55
2023-01-30T05:26:22.802Z,23.88
2023-01-30T05:28:56.527Z,24.00
2023-01-30T05:31:24.860Z,20.63
2023-01-30T05:33:53.538Z,17.77
2023-01-30T05:36:24.051Z,20.35
2023-01-30T05:38:52.014Z,17.30
2023-01-30T05:41:20.126Z,21.13
2023-01-30T05:43:51.339Z,20.77
2023-01-30T05:46:20.781Z,22.42
2023-01-30T05:48:49.065Z,21.73
2023-01-30T05:51:19.060Z,24.17
2023-01-30T05:53:46.910Z,21.80
2023-01-30T05:56:15.034Z,20.63
2023-01-30T05:58:43.233Z,20.50
2023-01-30T06:01:13.594Z,20.48
2023-01-30T06:03:42.871Z,22.98
2023-01-30T06:06:13.588Z,20.35
2023-01-30T06:08:42.229Z,20.58
2023-01-30T06:11:12.623Z,21.42
2023-01-30T06:13:41.650Z,21.88
2023-01-30T06:16:11.961Z,17.80
2023-01-30T06:18:40.167Z,23.38
2023-01-30T06:21:09.722Z,18.52
2023-01-30T06:23:38.868Z,19.80
2023-01-30T06:26:09.050Z,20.45
2023-01-30T06:28:38.034Z,18.85
2023-01-30T06:31:08.150Z,17.90
2023-01-30T06:33:36.170Z,19.38
2023-01-30T06:36:04.144Z,19.67
2023-01-30T06:38:33.411Z,19.33
2023-01-30T06:41:01.295Z,18.55
2023-01-30T06:43:29.211Z,19.92
2023-01-30T06:45:59.133Z,21.70
2023-01-30T06:48:27.137Z,21.15
2023-01-30T06:50:55.245Z,18.15
2023-01-30T06:53:25.306Z,22.05
2023-01-30T06:55:54.675Z,20.08
2023-01-30T06:58:22.534Z,21.52
2023-01-30T07:00:50.431Z,22.63
2023-01-30T07:03:19.597Z,23.58
2023-01-30T07:05:48.513Z,20.83
2023-01-30T07:08:17.384Z,21.60
2023-01-30T07:10:45.853Z,20.25
2023-01-30T07:13:15.487Z,22.13
2023-01-30T07:15:43.376Z,22.25
2023-01-30T07:18:11.262Z,22.05
2023-01-30T07:20:39.125Z,22.40
2023-01-30T07:23:07.031Z,22.17
2023-01-30T07:25:34.894Z,21.80
2023-01-30T07:28:04.191Z,24.63
2023-01-30T07:30:36.025Z,22.35
2023-01-30T07:33:05.922Z,23.13
2023-01-30T07:35:36.027Z,20.92
2023-01-30T07:38:04.127Z,20.90
2023-01-30T07:40:32.221Z,24.75
2023-01-30T07:43:02.179Z,28.90
2023-01-30T07:45:35.588Z,114.75
2023-01-30T07:48:03.688Z,41.90
2023-01-30T07:50:31.804Z,21.88
2023-01-30T07:52:59.683Z,22.25
2023-01-30T07:55:28.354Z,21.63
2023-01-30T07:57:56.833Z,22.15
2023-01-30T08:00:25.060Z,17.92
2023-01-30T08:02:54.753Z,20.58
2023-01-30T08:05:22.634Z,22.55
2023-01-30T08:07:50.537Z,19.77
2023-01-30T08:10:18.913Z,27.17
2023-01-30T08:12:47.020Z,23.77
2023-01-30T08:15:14.888Z,19.23
2023-01-30T08:17:42.804Z,19.80
2023-01-30T08:20:16.766Z,17.80
2023-01-30T08:22:45.036Z,17.67
2023-01-30T08:25:12.902Z,21.58
2023-01-30T08:27:40.798Z,18.63
2023-01-30T08:30:11.080Z,14.75
2023-01-30T08:32:39.007Z,14.98
2023-01-30T08:35:07.984Z,14.35
2023-01-30T08:37:37.277Z,13.27
2023-01-30T08:40:05.900Z,16.63
2023-01-30T08:42:33.790Z,13.80
2023-01-30T08:45:01.730Z,13.90
2023-01-30T08:47:29.729Z,14.10
2023-01-30T08:49:57.659Z,14.98
2023-01-30T08:52:25.605Z,12.48
2023-01-30T08:54:54.927Z,12.68
2023-01-30T08:57:22.860Z,12.75
2023-01-30T08:59:51.263Z,12.68
2023-01-30T09:02:19.243Z,10.70
2023-01-30T09:04:47.241Z,11.88
2023-01-30T09:07:15.153Z,12.15
2023-01-30T09:09:43.090Z,13.70
2023-01-30T09:12:12.299Z,15.10
2023-01-30T09:14:40.204Z,10.88
2023-01-30T09:17:08.124Z,10.43
2023-01-30T09:19:37.193Z,10.82
2023-01-30T09:22:05.371Z,11.00
2023-01-30T09:24:33.440Z,10.32
2023-01-30T09:27:01.322Z,7.68
2023-01-30T09:29:30.910Z,9.10
2023-01-30T09:31:58.836Z,8.85
2023-01-30T09:34:28.858Z,8.65
2023-01-30T09:37:00.140Z,8.02
2023-01-30T09:39:28.813Z,9.27
2023-01-30T09:42:20.520Z,7.13
2023-01-30T09:45:12.945Z,8.65
2023-01-30T09:47:49.814Z,8.05
2023-01-30T09:50:42.450Z,7.53
2023-01-30T09:53:19.419Z,8.30
2023-01-30T09:55:48.944Z,45.67
2023-01-30T09:58:20.136Z,9.02
2023-01-30T10:00:53.205Z,7.25
2023-01-30T10:03:27.528Z,8.82
2023-01-30T10:05:58.804Z,10.43
2023-01-30T10:08:44.047Z,9.10
2023-01-30T10:11:26.208Z,8.13
2023-01-30T10:14:16.417Z,12.93
2023-01-30T10:17:01.266Z,9.98
2023-01-30T10:19:51.079Z,9.57
2023-01-30T10:22:30.364Z,9.68
2023-01-30T10:25:11.568Z,11.43
2023-01-30T10:27:46.945Z,11.07
2023-01-30T10:30:18.157Z,9.43
2023-01-30T10:32:52.653Z,9.85
2023-01-30T10:35:26.205Z,9.25
2023-01-30T10:38:04.178Z,9.38
2023-01-30T10:40:37.901Z,10.70
2023-01-30T10:43:16.199Z,8.35
2023-01-30T10:45:55.071Z,10.25
2023-01-30T10:48:47.063Z,8.82
2023-01-30T10:51:24.311Z,8.75
2023-01-30T10:53:58.731Z,9.80
2023-01-30T10:56:38.402Z,8.30
2023-01-30T10:59:21.857Z,7.65
2023-01-30T11:01:59.477Z,8.27
2023-01-30T11:04:34.156Z,7.68
2023-01-30T11:07:02.982Z,9.00
2023-01-30T11:09:41.961Z,8.40
2023-01-30T11:12:10.049Z,11.68
2023-01-30T11:14:56.381Z,8.63
2023-01-30T11:17:33.194Z,8.00
2023-01-30T11:20:10.804Z,9.70
2023-01-30T11:22:47.074Z,9.30
2023-01-30T11:25:17.336Z,9.30
2023-01-30T11:27:52.431Z,10.45
2023-01-30T11:30:22.034Z,8.48
2023-01-30T11:32:51.473Z,10.98
2023-01-30T11:35:30.366Z,9.57
2023-01-30T11:38:12.947Z,8.57
2023-01-30T11:40:41.443Z,9.50
2023-01-30T11:43:14.540Z,9.30
2023-01-30T11:45:47.056Z,9.13
2023-01-30T11:48:34.113Z,9.88
2023-01-30T11:51:11.476Z,11.25
2023-01-30T11:53:42.910Z,7.65
2023-01-30T11:56:16.999Z,9.55
2023-01-30T11:58:48.579Z,7.07
2023-01-30T12:01:18.366Z,8.40
2023-01-30T12:03:51.441Z,10.95
2023-01-30T12:06:26.021Z,10.18
2023-01-30T12:08:55.790Z,7.82
2023-01-30T12:11:27.500Z,11.27
2023-01-30T12:13:58.304Z,9.88
2023-01-30T12:16:36.312Z,10.68
2023-01-30T12:19:12.537Z,8.82
2023-01-30T12:21:47.489Z,7.47
2023-01-30T12:24:22.849Z,8.25
2023-01-30T12:26:56.284Z,7.03
2023-01-30T12:29:28.441Z,7.28
2023-01-30T12:32:06.416Z,9.05
2023-01-30T12:34:34.510Z,9.02
2023-01-30T12:37:23.008Z,6.70
2023-01-30T12:40:00.210Z,9.32
2023-01-30T12:42:44.102Z,9.57
2023-01-30T12:45:22.399Z,8.20
2023-01-30T12:48:29.259Z,7.40
2023-01-30T12:51:06.467Z,10.00
2023-01-30T12:53:49.134Z,9.05
2023-01-30T12:56:41.983Z,7.47
2023-01-30T12:59:14.704Z,8.77
2023-01-30T13:01:52.344Z,8.13
2023-01-30T13:04:30.831Z,9.05
2023-01-30T13:07:09.999Z,7.95
2023-01-30T13:09:55.761Z,8.38
2023-01-30T13:12:32.054Z,12.57
2023-01-30T13:15:08.379Z,8.20
2023-01-30T13:17:53.974Z,8.10
2023-01-30T13:20:48.059Z,9.23
2023-01-30T13:23:21.069Z,7.93
2023-01-30T13:26:01.085Z,10.27
2023-01-30T13:28:33.822Z,7.15
2023-01-30T13:31:02.729Z,7.57
2023-01-30T13:33:36.080Z,10.00
2023-01-30T13:36:11.108Z,7.70
2023-01-30T13:38:46.672Z,7.95
2023-01-30T13:41:18.614Z,7.72
2023-01-30T13:43:53.287Z,8.13
2023-01-30T13:46:25.611Z,8.55
2023-01-30T13:49:04.747Z,7.53
2023-01-30T13:51:49.322Z,5.93
2023-01-30T13:54:31.290Z,6.63
2023-01-30T13:57:08.612Z,8.07
2023-01-30T14:00:10.654Z,6.30
2023-01-30T14:03:28.904Z,9.80
2023-01-30T14:06:26.907Z,6.25
2023-01-30T14:08:59.252Z,6.68
2023-01-30T14:11:39.788Z,5.90
2023-01-30T14:14:28.582Z,8.63
2023-01-30T14:16:58.960Z,9.00
2023-01-30T14:19:36.108Z,7.95
2023-01-30T14:22:16.840Z,7.65
2023-01-30T14:24:44.765Z,10.60
2023-01-30T14:27:31.954Z,7.93
2023-01-30T14:30:01.351Z,7.07
2023-01-30T14:32:53.122Z,7.28
2023-01-30T14:35:28.924Z,7.00
2023-01-30T14:38:11.859Z,6.00
2023-01-30T14:41:24.523Z,8.52
2023-01-30T14:43:54.238Z,5.90
2023-01-30T14:46:58.196Z,10.85
2023-01-30T14:49:32.057Z,8.63
2023-01-30T14:52:00.499Z,8.80
2023-01-30T14:54:44.416Z,5.93
2023-01-30T14:57:20.189Z,6.95
2023-01-30T15:00:14.317Z,7.80
2023-01-30T15:02:48.944Z,6.50
2023-01-30T15:05:21.913Z,8.20
2023-01-30T15:07:52.817Z,7.00
2023-01-30T15:10:45.843Z,8.82
2023-01-30T15:13:38.720Z,7.60
2023-01-30T15:16:36.676Z,8.07
2023-01-30T15:19:24.003Z,7.20
2023-01-30T15:22:02.782Z,8.10
2023-01-30T15:25:02.017Z,10.07
2023-01-30T15:27:38.595Z,7.03
2023-01-30T15:30:17.918Z,7.25
2023-01-30T15:32:46.699Z,9.40
2023-01-30T15:35:28.332Z,6.13
2023-01-30T15:37:57.908Z,6.95
2023-01-30T15:40:27.764Z,5.93
2023-01-30T15:43:14.725Z,8.02
2023-01-30T15:45:51.553Z,7.45
2023-01-30T15:48:34.421Z,14.98
2023-01-30T15:51:04.492Z,8.35
2023-01-30T15:53:36.375Z,6.35
2023-01-30T15:56:08.644Z,8.18
2023-01-30T15:58:40.679Z,8.20
2023-01-30T16:01:09.274Z,8.48
2023-01-30T16:03:42.653Z,9.93
2023-01-30T16:06:24.385Z,6.88
2023-01-30T16:09:01.375Z,11.02
2023-01-30T16:11:37.953Z,7.60
2023-01-30T16:14:07.171Z,6.53
2023-01-30T16:16:37.047Z,8.57
2023-01-30T16:19:08.970Z,9.73
2023-01-30T16:21:41.020Z,7.05
2023-01-30T16:24:17.843Z,7.55
2023-01-30T16:26:49.492Z,9.02
2023-01-30T16:29:20.132Z,10.38
2023-01-30T16:31:50.063Z,12.05
2023-01-30T16:34:32.114Z,8.48
2023-01-30T16:37:06.294Z,6.32
2023-01-30T16:39:35.872Z,8.80
2023-01-30T16:42:19.835Z,6.20
2023-01-30T16:44:47.752Z,7.15
2023-01-30T16:47:24.526Z,11.25
2023-01-30T16:49:54.070Z,6.80
2023-01-30T16:52:25.828Z,6.68
2023-01-30T16:54:55.887Z,8.82
2023-01-30T16:57:31.723Z,10.57
2023-01-30T17:00:00.381Z,8.50
2023-01-30T17:02:34.895Z,14.88
2023-01-30T17:05:20.601Z,7.55
2023-01-30T17:07:52.194Z,11.10
2023-01-30T17:10:59.687Z,6.63
2023-01-30T17:13:36.605Z,8.85
2023-01-30T17:16:35.066Z,12.65
2023-01-30T17:19:03.575Z,11.23
2023-01-30T17:21:35.795Z,9.32
2023-01-30T17:24:06.693Z,8.35
2023-01-30T17:26:35.251Z,7.70
2023-01-30T17:29:03.239Z,10.65
2023-01-30T17:31:31.344Z,12.95
2023-01-30T17:33:59.683Z,8.90
2023-01-30T17:36:30.246Z,19.13
2023-01-30T17:38:59.848Z,12.75
2023-01-30T17:41:33.486Z,10.38
2023-01-30T17:44:01.500Z,10.98
2023-01-30T17:46:35.052Z,11.38
2023-01-30T17:49:03.251Z,10.60
2023-01-30T17:51:31.257Z,13.45
2023-01-30T17:53:59.250Z,13.13
2023-01-30T17:56:37.881Z,18.17
2023-01-30T17:59:07.314Z,14.38
2023-01-30T18:01:35.472Z,11.50
2023-01-30T18:04:03.446Z,14.52
2023-01-30T18:06:32.147Z,13.27
2023-01-30T18:09:00.285Z,7.72
2023-01-30T18:11:28.189Z,10.43
2023-01-30T18:13:57.947Z,11.43
2023-01-30T18:16:30.801Z,14.07
2023-01-30T18:18:59.510Z,11.07
2023-01-30T18:21:27.724Z,10.70
2023-01-30T18:23:55.609Z,10.30
2023-01-30T18:26:23.614Z,13.05
2023-01-30T18:28:53.263Z,14.75
2023-01-30T18:31:25.094Z,11.27
2023-01-30T18:33:55.241Z,12.73
2023-01-30T18:36:23.371Z,12.80
2023-01-30T18:38:51.775Z,12.13
2023-01-30T18:41:21.594Z,17.33
2023-01-30T18:43:55.034Z,12.93
2023-01-30T18:46:24.840Z,15.40
2023-01-30T18:48:52.975Z,15.00
2023-01-30T18:51:23.295Z,10.68
2023-01-30T18:53:52.801Z,8.90
2023-01-30T18:56:23.157Z,10.30
2023-01-30T18:58:52.396Z,13.00
2023-01-30T19:01:22.790Z,15.50
2023-01-30T19:03:55.584Z,10.05
2023-01-30T19:06:24.038Z,10.65
2023-01-30T19:08:52.071Z,14.38
2023-01-30T19:11:39.795Z,12.27
2023-01-30T19:14:08.319Z,10.02
2023-01-30T19:16:38.376Z,10.10
2023-01-30T19:19:09.043Z,10.93
2023-01-30T19:21:37.477Z,14.23
2023-01-30T19:24:06.619Z,15.38
2023-01-30T19:26:35.083Z,10.98
2023-01-30T19:29:03.187Z,14.88
2023-01-30T19:31:31.511Z,14.23
2023-01-30T19:34:01.608Z,10.93
2023-01-30T19:36:32.733Z,17.70
2023-01-30T19:39:01.733Z,11.20
2023-01-30T19:41:31.795Z,16.38
2023-01-30T19:44:01.604Z,10.65
2023-01-30T19:46:29.761Z,14.45
2023-01-30T19:48:57.926Z,15.50
2023-01-30T19:51:27.454Z,9.65
2023-01-30T19:53:58.165Z,10.13
2023-01-30T19:56:27.237Z,14.55
2023-01-30T19:58:57.192Z,16.70
2023-01-30T20:01:27.733Z,13.90
2023-01-30T20:03:55.802Z,10.23
2023-01-30T20:06:26.096Z,12.68
2023-01-30T20:08:58.346Z,13.48
2023-01-30T20:11:26.360Z,14.18
2023-01-30T20:13:54.456Z,14.38
2023-01-30T20:16:25.259Z,14.95
2023-01-30T20:18:56.659Z,19.20
2023-01-30T20:21:25.301Z,11.30
2023-01-30T20:23:53.954Z,14.18
2023-01-30T20:26:25.838Z,14.15
2023-01-30T20:28:55.568Z,14.60
2023-01-30T20:31:25.604Z,10.60
2023-01-30T20:33:55.753Z,11.30
2023-01-30T20:36:24.508Z,11.60
2023-01-30T20:38:53.301Z,13.85
2023-01-30T20:41:24.565Z,13.15
2023-01-30T20:43:56.546Z,11.07
2023-01-30T20:46:27.162Z,13.02
2023-01-30T20:48:56.850Z,15.57
2023-01-30T20:51:26.212Z,16.17
2023-01-30T20:53:56.110Z,16.98
2023-01-30T20:56:27.171Z,9.70
2023-01-30T20:58:55.057Z,13.20
2023-01-30T21:01:25.521Z,11.52
2023-01-30T21:03:55.237Z,16.13
2023-01-30T21:06:42.756Z,10.85
2023-01-30T21:09:15.433Z,13.05
2023-01-30T21:11:44.752Z,12.93
2023-01-30T21:14:12.883Z,11.27
2023-01-30T21:16:40.925Z,13.50
2023-01-30T21:19:14.286Z,18.10
2023-01-30T21:21:46.964Z,16.85
2023-01-30T21:24:16.403Z,15.02
2023-01-30T21:26:47.701Z,11.77
2023-01-30T21:29:17.893Z,12.73
2023-01-30T21:31:46.622Z,12.18
2023-01-30T21:34:14.804Z,13.93
2023-01-30T21:36:42.926Z,17.05
2023-01-30T21:39:31.636Z,11.88
2023-01-30T21:42:20.087Z,11.55
2023-01-30T21:44:49.115Z,15.38
2023-01-30T21:47:16.979Z,16.15
2023-01-30T21:49:45.554Z,16.23
2023-01-30T21:52:13.485Z,18.08
2023-01-30T21:54:41.430Z,11.02
2023-01-30T21:57:10.806Z,14.57
2023-01-30T21:59:38.979Z,13.32
2023-01-30T22:02:07.136Z,16.15
2023-01-30T22:04:36.454Z,14.57
2023-01-30T22:07:06.772Z,10.82
2023-01-30T22:09:35.261Z,17.10
2023-01-30T22:12:03.268Z,20.13
2023-01-30T22:14:33.253Z,13.93
2023-01-30T22:17:01.297Z,12.45
2023-01-30T22:19:35.182Z,13.60
2023-01-30T22:22:03.394Z,16.65
2023-01-30T22:24:31.582Z,9.85
2023-01-30T22:26:59.768Z,14.35
2023-01-30T22:29:29.061Z,17.40
2023-01-30T22:31:58.436Z,17.05
2023-01-30T22:34:26.596Z,12.48
2023-01-30T22:36:54.706Z,19.55
2023-01-30T22:39:22.714Z,13.52
2023-01-30T22:41:50.707Z,13.55
2023-01-30T22:44:18.601Z,15.70
2023-01-30T22:46:46.518Z,15.38
2023-01-30T22:49:15.788Z,13.30
2023-01-30T22:51:44.128Z,15.32
2023-01-30T22:54:15.692Z,15.25
2023-01-30T22:56:44.881Z,14.98
2023-01-30T22:59:13.055Z,15.60
2023-01-30T23:01:42.420Z,17.70
2023-01-30T23:04:12.708Z,14.95
2023-01-30T23:06:42.821Z,13.85
2023-01-30T23:09:12.552Z,21.27
2023-01-30T23:11:43.183Z,11.48
2023-01-30T23:14:12.748Z,15.40
2023-01-30T23:16:42.513Z,18.35
2023-01-30T23:19:11.416Z,13.57
2023-01-30T23:21:42.462Z,14.75
2023-01-30T23:24:13.404Z,11.35
2023-01-30T23:26:43.221Z,12.23
2023-01-30T23:29:17.369Z,23.70
2023-01-30T23:31:46.931Z,16.25
2023-01-30T23:34:17.551Z,13.95
2023-01-30T23:36:47.544Z,21.08
2023-01-30T23:39:15.684Z,16.48
2023-01-30T23:41:44.586Z,18.25
2023-01-30T23:44:12.657Z,16.10
2023-01-30T23:46:42.032Z,17.00
2023-01-30T23:49:11.715Z,16.15
2023-01-30T23:51:41.427Z,15.55
2023-01-30T23:54:11.391Z,15.75
2023-01-30T23:56:41.537Z,13.75
2023-01-30T23:59:09.905Z,17.58
